Time;durP1;ratioP1;P1;durP2;ratioP2;P2;SDS_P1;SDS_P2;PMS_P1;PMS_P2;Temp;Humidity;BMP_temperature;BMP_pressure;BME280_temperature;BME280_humidity;BME280_pressure;Samples;Min_cycle;Max_cycle;Signal;HPM_P1;HPM_P2
2022/04/16 00:01:37;;;;;;;11.93;6.80;;;6.80;99.90;;;;;;5010466;28;20198;-79
2022/04/16 00:04:03;;;;;;;9.47;6.27;;;6.80;99.90;;;;;;5011057;28;20184;-79
2022/04/16 00:06:29;;;;;;;10.90;6.00;;;6.70;99.90;;;;;;5010415;28;20213;-80
2022/04/16 00:08:54;;;;;;;11.20;6.70;;;6.70;99.90;;;;;;5028133;28;20230;-80
2022/04/16 00:11:20;;;;;;;12.60;6.77;;;6.80;99.90;;;;;;5010218;28;20558;-79
2022/04/16 00:13:50;;;;;;;11.77;6.37;;;6.70;99.90;;;;;;5010682;28;20187;-79
2022/04/16 00:16:17;;;;;;;12.80;6.50;;;6.60;99.90;;;;;;5009800;28;20194;-80
2022/04/16 00:18:43;;;;;;;11.43;6.37;;;6.60;99.90;;;;;;5009951;28;20191;-80
2022/04/16 00:21:12;;;;;;;11.13;6.03;;;6.50;99.90;;;;;;5026334;28;20992;-79
2022/04/16 00:23:40;;;;;;;10.57;5.77;;;6.50;99.90;;;;;;5028061;28;20191;-80
2022/04/16 00:26:07;;;;;;;12.70;6.23;;;6.50;99.90;;;;;;5028047;28;20191;-80
2022/04/16 00:28:33;;;;;;;6.80;4.87;;;6.50;99.90;;;;;;5025890;28;20211;-81
2022/04/16 00:30:59;;;;;;;8.17;4.97;;;6.50;99.90;;;;;;5009755;28;20211;-79
2022/04/16 00:33:25;;;;;;;7.20;4.30;;;6.50;99.90;;;;;;5009985;28;20186;-81
2022/04/16 00:35:51;;;;;;;8.03;4.73;;;6.50;99.90;;;;;;5009535;28;20203;-81
2022/04/16 00:38:17;;;;;;;6.20;3.87;;;6.50;99.90;;;;;;5009649;28;20186;-81
2022/04/16 00:40:43;;;;;;;6.43;3.93;;;6.50;99.90;;;;;;5009232;28;20211;-79
2022/04/16 00:43:20;;;;;;;5.87;3.63;;;6.40;99.90;;;;;;5010068;28;20256;-79
2022/04/16 00:45:47;;;;;;;5.17;3.80;;;6.40;99.90;;;;;;5009595;28;20187;-79
2022/04/16 00:48:13;;;;;;;4.63;3.63;;;6.30;99.90;;;;;;5027897;28;20225;-80
2022/04/16 00:50:39;;;;;;;5.03;3.23;;;6.30;99.90;;;;;;5010590;28;20234;-79
2022/04/16 00:53:05;;;;;;;5.27;3.40;;;6.30;99.90;;;;;;5011100;28;20242;-80
2022/04/16 00:55:35;;;;;;;4.43;2.80;;;6.30;99.90;;;;;;5027958;28;20199;-79
2022/04/16 00:58:00;;;;;;;3.63;3.13;;;6.30;99.90;;;;;;5010132;28;20746;-78
2022/04/16 01:00:26;;;;;;;4.50;3.20;;;6.20;99.90;;;;;;5009890;28;20302;-80
2022/04/16 01:02:52;;;;;;;3.77;2.80;;;6.20;99.90;;;;;;5010406;28;20530;-78
2022/04/16 01:05:19;;;;;;;4.50;2.97;;;6.30;99.90;;;;;;5028039;28;20189;-79
2022/04/16 01:07:53;;;;;;;4.10;2.50;;;6.20;99.90;;;;;;5009806;28;20265;-80
2022/04/16 01:10:20;;;;;;;3.80;2.57;;;6.20;99.90;;;;;;5027688;28;20195;-80
2022/04/16 01:12:45;;;;;;;3.07;2.50;;;6.20;99.90;;;;;;5010298;28;20187;-80
2022/04/16 01:15:11;;;;;;;4.57;2.70;;;6.20;99.90;;;;;;5009833;28;20245;-80
2022/04/16 01:17:37;;;;;;;4.73;2.80;;;6.30;99.90;;;;;;5027733;28;20209;-80
2022/04/16 01:20:03;;;;;;;4.00;2.33;;;6.30;99.90;;;;;;5009855;28;20226;-79
2022/04/16 01:22:29;;;;;;;3.67;2.50;;;6.10;99.90;;;;;;5010290;28;20278;-79
2022/04/16 01:24:55;;;;;;;2.93;2.10;;;6.00;99.90;;;;;;5027318;28;20270;-79
2022/04/16 01:27:21;;;;;;;2.70;2.00;;;5.80;99.90;;;;;;5026772;28;20207;-79
2022/04/16 01:29:48;;;;;;;5.23;2.50;;;5.70;99.90;;;;;;5008357;28;20667;-79
2022/04/16 01:32:13;;;;;;;3.80;2.43;;;5.60;99.90;;;;;;5009097;28;21314;-79
2022/04/16 01:34:40;;;;;;;3.60;2.80;;;5.50;99.90;;;;;;5008555;28;20253;-79
2022/04/16 01:37:05;;;;;;;5.00;2.40;;;5.40;99.90;;;;;;5026705;28;20225;-80
2022/04/16 01:39:32;;;;;;;3.90;2.10;;;5.30;99.90;;;;;;5008655;28;20632;-80
2022/04/16 01:41:58;;;;;;;3.40;2.10;;;5.10;99.90;;;;;;5009137;28;20645;-80
2022/04/16 01:44:24;;;;;;;3.30;2.00;;;5.00;99.90;;;;;;5024786;28;20267;-79
2022/04/16 01:46:50;;;;;;;2.73;2.13;;;4.80;99.90;;;;;;5026583;28;20175;-80
2022/04/16 01:49:15;;;;;;;4.10;1.93;;;4.70;99.90;;;;;;5026352;28;20199;-79
2022/04/16 01:51:41;;;;;;;2.40;1.90;;;4.70;99.90;;;;;;5026597;28;20175;-80
2022/04/16 01:54:06;;;;;;;4.10;2.20;;;4.60;99.90;;;;;;5008632;28;20191;-79
2022/04/16 01:56:32;;;;;;;2.20;1.60;;;4.50;99.90;;;;;;5008630;28;20207;-80
2022/04/16 01:58:58;;;;;;;2.77;1.43;;;4.40;99.90;;;;;;5025902;28;20190;-79
2022/04/16 02:01:23;;;;;;;1.83;1.60;;;4.40;99.90;;;;;;5008491;28;20266;-79
2022/04/16 02:03:49;;;;;;;2.87;1.80;;;4.40;99.90;;;;;;5008541;28;20237;-79
2022/04/16 02:06:17;;;;;;;2.37;1.80;;;4.30;99.90;;;;;;5008152;28;20680;-79
2022/04/16 02:08:43;;;;;;;2.03;1.70;;;4.20;99.90;;;;;;5008808;28;20632;-80
2022/04/16 02:11:09;;;;;;;4.40;1.83;;;4.20;99.90;;;;;;5008617;28;20202;-79
2022/04/16 02:13:34;;;;;;;2.97;2.00;;;4.10;99.90;;;;;;5008528;28;20175;-79
2022/04/16 02:16:00;;;;;;;1.77;1.50;;;4.00;99.90;;;;;;5008087;28;20660;-81
2022/04/16 02:18:27;;;;;;;2.63;1.60;;;4.00;99.90;;;;;;5007777;28;20189;-80
2022/04/16 02:20:53;;;;;;;3.50;1.80;;;3.90;99.90;;;;;;5007768;28;20234;-79
2022/04/16 02:23:18;;;;;;;3.77;2.00;;;3.80;99.90;;;;;;5008393;28;21206;-79
2022/04/16 02:25:44;;;;;;;5.10;1.77;;;3.70;99.90;;;;;;5025921;28;20206;-79
2022/04/16 02:28:10;;;;;;;2.63;1.97;;;3.70;99.90;;;;;;5025688;28;20229;-79
2022/04/16 02:30:37;;;;;;;3.53;1.70;;;3.60;99.90;;;;;;5007727;28;20206;-80
2022/04/16 02:33:03;;;;;;;2.27;1.70;;;3.60;99.90;;;;;;5008184;28;20183;-80
2022/04/16 02:35:29;;;;;;;3.40;1.67;;;3.60;99.90;;;;;;5007775;28;20265;-79
2022/04/16 02:37:56;;;;;;;2.00;1.60;;;3.50;99.90;;;;;;5007691;28;20190;-80
2022/04/16 02:40:21;;;;;;;3.30;1.57;;;3.50;99.90;;;;;;5007655;28;20713;-80
2022/04/16 02:42:47;;;;;;;3.23;1.40;;;3.50;99.90;;;;;;5008082;28;20316;-79
2022/04/16 02:47:59;;;;;;;1.60;1.40;;;3.30;99.90;;;;;;5025568;28;20205;-79
2022/04/16 02:50:27;;;;;;;2.40;1.40;;;3.30;99.90;;;;;;5007627;28;20199;-80
2022/04/16 02:52:54;;;;;;;1.53;1.33;;;3.20;99.90;;;;;;5025759;28;20197;-79
2022/04/16 02:55:20;;;;;;;1.53;1.30;;;3.10;99.90;;;;;;5007446;28;20175;-79
2022/04/16 02:57:46;;;;;;;2.10;1.40;;;3.00;99.90;;;;;;5007889;28;20198;-79
2022/04/16 03:00:14;;;;;;;2.53;1.60;;;3.00;99.90;;;;;;5007329;28;20225;-79
2022/04/16 03:02:40;;;;;;;2.40;1.53;;;3.00;99.90;;;;;;5025904;28;20179;-80
2022/04/16 03:05:07;;;;;;;2.33;1.50;;;2.90;99.90;;;;;;5025384;28;20183;-78
2022/04/16 03:07:33;;;;;;;2.83;1.40;;;2.80;99.90;;;;;;5007600;28;20218;-79
2022/04/16 03:09:59;;;;;;;3.40;1.60;;;2.70;99.90;;;;;;5008756;28;20582;-80
2022/04/16 03:12:24;;;;;;;3.97;1.70;;;2.60;99.90;;;;;;5011395;28;20182;-79
2022/04/16 03:17:35;;;;;;;1.70;1.60;;;2.50;99.90;;;;;;5028587;28;20266;-81
2022/04/16 03:20:04;;;;;;;3.03;1.40;;;2.50;99.90;;;;;;5028748;28;20689;-80
2022/04/16 03:22:32;;;;;;;2.50;1.40;;;2.50;99.90;;;;;;5011515;28;20179;-79
2022/04/16 03:24:58;;;;;;;2.27;1.50;;;2.50;99.90;;;;;;5027282;28;20245;-79
2022/04/16 03:27:24;;;;;;;1.70;1.50;;;2.50;99.90;;;;;;5028955;28;20203;-79
2022/04/16 03:29:49;;;;;;;1.47;1.30;;;2.50;99.90;;;;;;5010960;28;20206;-79
2022/04/16 03:32:15;;;;;;;2.40;2.03;;;2.40;99.90;;;;;;5011024;28;20606;-78
2022/04/16 03:34:41;;;;;;;2.87;1.60;;;2.50;99.90;;;;;;5028576;28;20190;-78
2022/04/16 03:37:06;;;;;;;2.13;1.50;;;2.50;99.90;;;;;;5010829;28;20198;-78
2022/04/16 03:39:32;;;;;;;2.20;1.37;;;2.40;99.90;;;;;;5010571;28;20256;-79
2022/04/16 03:41:57;;;;;;;2.80;1.77;;;2.40;99.90;;;;;;5029035;28;20261;-79
2022/04/16 03:44:23;;;;;;;3.10;1.50;;;2.40;99.90;;;;;;5010499;28;21165;-80
2022/04/16 03:46:49;;;;;;;1.83;1.57;;;2.40;99.90;;;;;;5010685;28;20676;-79
2022/04/16 03:49:17;;;;;;;3.40;2.00;;;2.50;99.90;;;;;;5011307;28;20202;-79
2022/04/16 03:51:44;;;;;;;1.70;1.43;;;2.40;99.90;;;;;;5010995;28;20262;-79
2022/04/16 04:02:22;;;;;;;2.77;1.53;;;2.30;99.90;;;;;;5028472;28;20189;-78
2022/04/16 04:04:49;;;;;;;2.90;1.50;;;2.30;99.90;;;;;;5028085;28;20190;-78
2022/04/16 04:07:14;;;;;;;1.83;1.53;;;2.30;99.90;;;;;;5010315;28;20241;-79
2022/04/16 04:09:40;;;;;;;1.93;1.40;;;2.30;99.90;;;;;;5010044;28;20230;-79
2022/04/16 04:12:11;;;;;;;2.87;1.50;;;2.20;99.90;;;;;;5010642;28;20182;-79
2022/04/16 04:14:38;;;;;;;1.87;1.70;;;2.10;99.90;;;;;;5026321;28;20654;-79
2022/04/16 04:17:06;;;;;;;2.23;1.70;;;2.10;99.90;;;;;;5009911;28;20178;-80
2022/04/16 04:19:35;;;;;;;1.77;1.37;;;2.00;99.90;;;;;;5009703;28;20560;-79
2022/04/16 04:22:05;;;;;;;1.50;1.40;;;2.10;99.90;;;;;;5028445;28;20261;-79
2022/04/16 04:24:32;;;;;;;2.00;1.70;;;2.10;99.90;;;;;;5026100;28;20261;-79
2022/04/16 04:26:59;;;;;;;2.07;1.30;;;2.00;99.90;;;;;;5026291;28;20217;-79
2022/04/16 04:29:25;;;;;;;2.03;1.50;;;2.00;99.90;;;;;;5027187;28;20210;-78
2022/04/16 04:31:51;;;;;;;2.60;1.70;;;2.00;99.90;;;;;;5009992;28;20206;-80
2022/04/16 04:34:17;;;;;;;2.27;1.80;;;2.10;99.90;;;;;;5009369;28;20210;-80
2022/04/16 04:36:43;;;;;;;3.67;1.53;;;2.10;99.90;;;;;;5026928;28;20198;-79
2022/04/16 04:39:08;;;;;;;2.07;1.50;;;2.20;99.90;;;;;;5009209;28;20265;-79
2022/04/16 04:41:34;;;;;;;3.97;1.63;;;2.20;99.90;;;;;;5009629;28;20183;-79
2022/04/16 04:44:00;;;;;;;3.47;2.07;;;2.20;99.90;;;;;;5027000;28;20193;-79
2022/04/16 04:46:25;;;;;;;4.03;2.37;;;2.30;99.90;;;;;;5009201;28;20191;-78
2022/04/16 04:48:51;;;;;;;2.33;1.63;;;2.30;99.90;;;;;;5026909;28;20254;-80
2022/04/16 04:51:16;;;;;;;2.60;2.13;;;2.40;99.90;;;;;;5027380;28;20191;-79
2022/04/16 04:53:42;;;;;;;3.40;1.90;;;2.50;99.90;;;;;;5009318;28;20197;-81
2022/04/16 04:56:08;;;;;;;5.13;2.50;;;2.60;99.90;;;;;;5009305;28;20241;-80
2022/04/16 04:58:33;;;;;;;4.40;2.30;;;2.70;99.90;;;;;;5026998;28;20937;-81
2022/04/16 05:00:59;;;;;;;3.07;1.90;;;2.80;99.90;;;;;;5026812;28;20209;-80
2022/04/16 05:03:24;;;;;;;4.03;2.17;;;3.00;99.90;;;;;;5009253;28;20218;-79
2022/04/16 05:05:50;;;;;;;2.53;1.70;;;3.10;99.90;;;;;;5008538;28;20183;-79
2022/04/16 05:08:16;;;;;;;4.10;1.80;;;3.20;99.90;;;;;;5027154;28;20202;-79
2022/04/16 05:10:41;;;;;;;2.83;1.90;;;3.40;99.90;;;;;;5027745;28;20768;-79
2022/04/16 05:13:07;;;;;;;2.43;1.70;;;3.70;99.90;;;;;;5029226;28;20179;-78
2022/04/16 05:15:33;;;;;;;2.13;1.60;;;3.70;99.90;;;;;;5028192;28;20661;-79
2022/04/16 05:17:58;;;;;;;3.37;1.60;;;4.00;99.90;;;;;;5028592;28;20254;-79
2022/04/16 05:20:24;;;;;;;4.47;1.80;;;4.30;99.90;;;;;;5010386;28;20207;-79
2022/04/16 05:22:49;;;;;;;3.57;1.63;;;5.10;99.90;;;;;;5011170;28;20190;-79
2022/04/16 05:25:15;;;;;;;2.33;1.20;;;5.80;99.90;;;;;;5011006;28;20245;-79
2022/04/16 05:27:41;;;;;;;3.40;1.50;;;6.50;99.90;;;;;;5029236;28;20221;-79
2022/04/16 05:30:11;;;;;;;1.30;1.20;;;7.40;99.90;;;;;;5011310;28;20268;-80
2022/04/16 05:32:40;;;;;;;2.20;1.30;;;8.10;99.90;;;;;;5029618;28;20174;-80
2022/04/16 05:35:06;;;;;;;2.67;1.30;;;8.60;99.90;;;;;;5028967;28;21157;-80
2022/04/16 05:37:32;;;;;;;2.55;1.10;;;9.00;99.90;;;;;;5029587;28;20297;-80
2022/04/16 05:39:58;;;;;;;2.10;1.25;;;9.40;99.90;;;;;;5029049;28;20684;-81
2022/04/16 05:42:24;;;;;;;1.48;1.25;;;9.60;99.90;;;;;;5011833;28;20249;-80
2022/04/16 05:44:49;;;;;;;2.25;1.35;;;9.90;99.90;;;;;;5012034;28;20191;-80
2022/04/16 05:47:15;;;;;;;2.92;1.35;;;10.00;99.90;;;;;;5028392;28;20232;-80
2022/04/16 05:49:41;;;;;;;2.97;1.33;;;10.00;99.90;;;;;;5011453;28;20207;-80
2022/04/16 05:52:07;;;;;;;1.58;1.30;;;10.00;99.90;;;;;;5008587;28;20187;-80
2022/04/16 05:54:35;;;;;;;3.20;1.52;;;10.20;99.90;;;;;;5006515;28;20182;-80
2022/04/16 05:57:01;;;;;;;2.15;1.20;;;10.20;99.90;;;;;;5007903;28;20657;-80
2022/04/16 05:59:27;;;;;;;3.50;1.50;;;9.80;99.90;;;;;;5025027;28;20278;-81
2022/04/16 06:01:53;;;;;;;2.67;1.40;;;8.90;99.90;;;;;;5025980;28;20680;-80
2022/04/16 06:04:18;;;;;;;1.90;1.20;;;8.00;99.90;;;;;;5007824;28;20175;-79
2022/04/16 06:06:46;;;;;;;2.70;1.37;;;7.50;99.90;;;;;;5025238;28;20236;-79
2022/04/16 06:09:12;;;;;;;2.20;1.33;;;7.50;99.90;;;;;;5025162;28;20680;-80
2022/04/16 06:11:37;;;;;;;2.57;1.47;;;7.80;99.90;;;;;;5007312;28;20273;-81
2022/04/16 06:14:03;;;;;;;2.60;1.30;;;8.50;99.90;;;;;;5025288;28;20232;-80
2022/04/16 06:16:30;;;;;;;1.92;1.48;;;9.20;99.90;;;;;;5025379;28;20210;-82
2022/04/16 06:18:55;;;;;;;3.72;1.45;;;9.90;99.90;;;;;;5007067;28;20202;-81
2022/04/16 06:21:21;;;;;;;2.33;1.20;;;10.10;99.90;;;;;;5025441;28;20187;-81
2022/04/16 06:23:46;;;;;;;2.03;1.30;;;10.10;99.90;;;;;;5007853;28;20300;-81
2022/04/16 06:26:12;;;;;;;3.00;1.23;;;10.20;99.90;;;;;;5006600;28;20337;-83
2022/04/16 06:28:38;;;;;;;1.83;1.10;;;10.40;99.90;;;;;;5023651;28;20214;-81
2022/04/16 06:31:03;;;;;;;2.72;1.05;;;10.60;99.90;;;;;;5004485;28;20361;-81
2022/04/16 06:33:29;;;;;;;1.75;1.45;;;10.40;99.90;;;;;;5020930;28;20265;-81
2022/04/16 06:35:54;;;;;;;2.85;1.30;;;10.40;99.90;;;;;;5003404;28;20647;-81
2022/04/16 06:38:20;;;;;;;1.38;0.80;;;10.00;99.90;;;;;;5022285;28;20237;-80
2022/04/16 06:40:45;;;;;;;1.27;0.80;;;9.30;99.90;;;;;;5021674;28;20210;-80
2022/04/16 06:43:11;;;;;;;2.83;0.83;;;8.30;99.90;;;;;;5021651;28;20187;-81
2022/04/16 06:45:38;;;;;;;1.93;0.70;;;7.70;99.90;;;;;;5006126;28;20285;-79
2022/04/16 06:48:04;;;;;;;1.23;0.90;;;7.20;99.90;;;;;;5007990;28;20237;-83
2022/04/16 06:50:29;;;;;;;2.03;1.00;;;7.20;99.90;;;;;;5006131;28;20713;-81
2022/04/16 06:52:55;;;;;;;2.03;0.80;;;7.10;99.90;;;;;;5009946;28;20186;-82
2022/04/16 06:55:21;;;;;;;2.03;0.80;;;7.00;99.90;;;;;;5007822;28;20649;-80
2022/04/16 06:57:47;;;;;;;2.20;1.10;;;6.80;99.90;;;;;;5027291;28;20270;-78
2022/04/16 07:00:13;;;;;;;1.93;0.67;;;7.00;99.90;;;;;;5012746;28;20293;-79
2022/04/16 07:02:39;;;;;;;1.57;0.80;;;7.30;99.90;;;;;;5010290;28;20232;-84
2022/04/16 07:05:06;;;;;;;1.30;0.70;;;7.30;99.90;;;;;;5027822;28;20199;-79
2022/04/16 07:07:32;;;;;;;1.30;1.10;;;7.30;99.90;;;;;;5008672;28;20250;-79
2022/04/16 07:09:59;;;;;;;1.50;0.80;;;7.20;99.90;;;;;;5028895;28;20230;-79
2022/04/16 07:12:24;;;;;;;1.30;0.80;;;7.00;99.90;;;;;;5027946;28;20876;-79
2022/04/16 07:14:50;;;;;;;1.20;1.00;;;7.00;99.90;;;;;;5010232;28;20353;-79
2022/04/16 07:17:16;;;;;;;2.00;0.90;;;6.90;99.90;;;;;;5010031;28;20230;-78
2022/04/16 07:19:41;;;;;;;1.57;0.80;;;6.90;99.90;;;;;;5010910;28;20256;-79
2022/04/16 07:22:07;;;;;;;0.90;0.90;;;7.00;99.90;;;;;;5011255;28;20564;-80
2022/04/16 07:24:37;;;;;;;2.00;1.03;;;6.90;99.90;;;;;;5026393;28;20690;-80
2022/04/16 07:27:04;;;;;;;1.80;0.93;;;7.00;99.90;;;;;;5009839;28;20186;-80
2022/04/16 07:29:30;;;;;;;1.90;1.00;;;7.20;99.90;;;;;;5010542;28;20686;-79
2022/04/16 07:31:56;;;;;;;1.97;1.03;;;7.00;99.90;;;;;;5009699;28;20228;-79
2022/04/16 07:34:22;;;;;;;2.00;0.80;;;7.00;99.90;;;;;;5026673;28;20264;-79
2022/04/16 07:36:48;;;;;;;0.93;0.90;;;6.90;99.90;;;;;;4990634;28;1078784;-79
2022/04/16 07:39:14;;;;;;;1.10;0.90;;;7.30;99.90;;;;;;5028537;28;20207;-80
2022/04/16 07:41:40;;;;;;;0.83;0.83;;;7.50;99.90;;;;;;5028468;28;20187;-79
2022/04/16 07:44:06;;;;;;;1.60;0.83;;;7.60;99.90;;;;;;5010728;28;20183;-80
2022/04/16 07:46:33;;;;;;;2.40;1.00;;;7.70;99.90;;;;;;5009202;28;21842;-81
2022/04/16 07:48:59;;;;;;;2.47;0.90;;;7.80;99.90;;;;;;5008919;28;20215;-82
2022/04/16 07:51:26;;;;;;;1.83;0.60;;;8.10;99.90;;;;;;5028240;28;20183;-79
2022/04/16 07:53:53;;;;;;;1.07;0.63;;;8.20;99.90;;;;;;5010262;28;20182;-79
2022/04/16 07:56:18;;;;;;;1.40;0.80;;;8.40;99.90;;;;;;5009405;28;20194;-79
2022/04/16 07:58:44;;;;;;;1.93;0.80;;;8.40;99.90;;;;;;5011145;28;20186;-82
2022/04/16 08:01:10;;;;;;;1.10;0.73;;;8.50;99.90;;;;;;5026703;28;20206;-79
2022/04/16 08:03:35;;;;;;;0.93;0.70;;;8.50;99.90;;;;;;5025568;28;20210;-79
2022/04/16 08:06:01;;;;;;;1.13;0.67;;;8.50;99.90;;;;;;5010106;28;20214;-78
2022/04/16 08:08:26;;;;;;;0.90;0.80;;;8.80;99.90;;;;;;5009476;28;20673;-80
2022/04/16 08:10:53;;;;;;;1.27;0.60;;;8.60;99.90;;;;;;5027253;28;20798;-80
2022/04/16 08:13:19;;;;;;;2.10;0.73;;;8.70;99.90;;;;;;5009180;28;20189;-77
2022/04/16 08:15:46;;;;;;;1.53;0.70;;;8.50;99.90;;;;;;5027535;28;20191;-79
2022/04/16 08:18:11;;;;;;;2.33;0.80;;;8.40;99.90;;;;;;5008135;28;20187;-79
2022/04/16 08:20:37;;;;;;;1.03;0.80;;;8.40;99.90;;;;;;5024048;28;20288;-77
2022/04/16 08:23:06;;;;;;;1.27;0.83;;;8.60;99.90;;;;;;5004672;28;20195;-78
2022/04/16 08:28:01;;;;;;;2.70;0.70;;;9.00;99.90;;;;;;5023704;28;20886;-79
2022/04/16 08:30:27;;;;;;;2.50;0.60;;;9.00;99.90;;;;;;5024301;28;20206;-80
2022/04/16 08:32:54;;;;;;;2.47;1.63;;;9.20;99.90;;;;;;5024751;28;20547;-80
2022/04/16 08:35:20;;;;;;;1.73;0.80;;;9.10;99.90;;;;;;5022693;28;20225;-80
2022/04/16 08:37:47;;;;;;;1.90;0.73;;;9.30;99.90;;;;;;5006051;28;20294;-80
2022/04/16 08:40:14;;;;;;;1.33;0.70;;;9.10;99.90;;;;;;5006236;28;20250;-80
2022/04/16 08:42:43;;;;;;;1.23;0.50;;;9.00;99.90;;;;;;5006978;28;20217;-80
2022/04/16 08:45:10;;;;;;;0.50;0.50;;;9.20;99.90;;;;;;5007510;28;20191;-80
2022/04/16 08:47:38;;;;;;;0.83;0.70;;;9.30;99.90;;;;;;5022532;28;20616;-81
2022/04/16 08:50:07;;;;;;;2.10;0.90;;;9.40;99.90;;;;;;5023992;28;20289;-82
2022/04/16 08:52:35;;;;;;;1.53;0.70;;;9.40;99.90;;;;;;5007272;28;21103;-81
2022/04/16 08:55:02;;;;;;;1.17;0.73;;;8.50;99.90;;;;;;5006794;28;20487;-81
2022/04/16 08:57:27;;;;;;;0.50;0.50;;;8.70;99.90;;;;;;5010559;28;20798;-83
2022/04/16 08:59:54;;;;;;;0.97;0.80;;;8.90;99.90;;;;;;5027410;28;20211;-82
2022/04/16 09:02:21;;;;;;;0.93;0.70;;;8.80;99.90;;;;;;5007688;28;20198;-81
2022/04/16 09:04:48;;;;;;;0.90;0.73;;;8.80;99.90;;;;;;5006405;28;20193;-80
2022/04/16 09:07:14;;;;;;;2.20;0.80;;;9.20;99.90;;;;;;5005629;28;20179;-82
2022/04/16 09:09:40;;;;;;;2.27;0.70;;;9.40;99.90;;;;;;5006807;28;20207;-80
2022/04/16 09:12:19;;;;;;;0.60;0.50;;;9.70;99.90;;;;;;5006782;28;20589;-81
2022/04/16 09:14:46;;;;;;;1.20;0.70;;;9.70;99.90;;;;;;5006214;28;20408;-80
2022/04/16 09:17:18;;;;;;;2.47;0.90;;;9.80;99.90;;;;;;5025539;28;20175;-80
2022/04/16 09:19:53;;;;;;;1.00;0.70;;;9.60;99.90;;;;;;5023848;28;20646;-78
2022/04/16 09:22:36;;;;;;;1.43;0.90;;;9.80;99.90;;;;;;5026106;28;20175;-80
2022/04/16 09:25:02;;;;;;;1.13;0.60;;;9.60;99.90;;;;;;5007203;28;20718;-78
2022/04/16 09:27:43;;;;;;;0.97;0.63;;;9.40;99.90;;;;;;5006881;28;20223;-81
2022/04/16 09:30:09;;;;;;;1.23;0.60;;;9.30;99.90;;;;;;5023833;28;20209;-79
2022/04/16 09:32:43;;;;;;;2.53;0.70;;;9.70;99.90;;;;;;5006326;28;20183;-79
2022/04/16 09:35:20;;;;;;;0.90;0.60;;;9.90;99.90;;;;;;5024390;28;20202;-78
2022/04/16 09:38:00;;;;;;;0.93;0.67;;;9.90;99.90;;;;;;5023598;28;20854;-79
2022/04/16 09:40:31;;;;;;;0.63;0.60;;;10.00;99.90;;;;;;5006253;28;20847;-80
2022/04/16 09:42:59;;;;;;;0.97;0.70;;;10.20;99.90;;;;;;5007960;28;20197;-79
2022/04/16 09:45:25;;;;;;;1.13;0.67;;;10.20;99.90;;;;;;5008347;28;20246;-79
2022/04/16 09:47:52;;;;;;;0.90;0.77;;;10.00;99.90;;;;;;5026762;28;20288;-78
2022/04/16 09:50:19;;;;;;;0.93;0.70;;;10.30;99.90;;;;;;5006430;28;20685;-80
2022/04/16 09:52:50;;;;;;;0.93;0.60;;;10.10;99.90;;;;;;5007111;28;20191;-80
2022/04/16 09:55:17;;;;;;;1.87;0.80;;;10.10;99.90;;;;;;5007207;28;20187;-82
2022/04/16 09:57:43;;;;;;;1.30;0.70;;;10.30;99.90;;;;;;5024133;28;20621;-79
2022/04/16 10:00:09;;;;;;;1.10;0.80;;;10.70;99.90;;;;;;5022490;28;20210;-78
2022/04/16 10:02:35;;;;;;;1.40;0.60;;;10.70;99.90;;;;;;5006577;28;20187;-82
2022/04/16 10:05:01;;;;;;;1.00;0.80;;;10.80;99.90;;;;;;5022222;28;20187;-81
2022/04/16 10:07:27;;;;;;;1.40;0.70;;;11.00;99.90;;;;;;5005790;28;20197;-82
2022/04/16 10:09:53;;;;;;;1.57;0.70;;;10.90;99.90;;;;;;5005583;28;20210;-83
2022/04/16 10:15:18;;;;;;;1.37;0.70;;;11.30;99.90;;;;;;5025166;28;20214;-83
2022/04/16 10:17:50;;;;;;;2.07;0.80;;;11.30;99.90;;;;;;5005569;28;20211;-81
2022/04/16 10:20:20;;;;;;;0.90;0.60;;;11.50;99.90;;;;;;5005620;28;20198;-84
2022/04/16 10:22:58;;;;;;;0.60;0.60;;;11.70;99.90;;;;;;5023805;28;20294;-83
2022/04/16 10:25:30;;;;;;;0.77;0.60;;;11.90;99.90;;;;;;5007919;28;20179;-82
2022/04/16 10:28:03;;;;;;;3.08;0.50;;;12.00;99.90;;;;;;5010433;28;20255;-82
2022/04/16 10:30:40;;;;;;;0.75;0.60;;;12.20;99.90;;;;;;5006175;28;20252;-84
2022/04/16 10:33:31;;;;;;;1.15;0.60;;;12.20;99.90;;;;;;5006851;28;20183;-83
2022/04/16 10:35:58;;;;;;;0.82;0.43;;;12.20;99.90;;;;;;5006035;28;20198;-83
2022/04/16 10:38:34;;;;;;;1.88;0.80;;;12.10;99.90;;;;;;5006717;28;20183;-82
2022/04/16 10:41:10;;;;;;;0.68;0.50;;;12.10;99.90;;;;;;5006877;28;20478;-84
2022/04/16 10:43:36;;;;;;;0.90;0.68;;;11.90;99.30;;;;;;5006517;28;20227;-82
2022/04/16 10:46:07;;;;;;;2.30;0.70;;;12.00;99.80;;;;;;5024316;28;20221;-82
2022/04/16 10:48:37;;;;;;;1.08;0.80;;;12.00;98.90;;;;;;5005465;28;20771;-82
2022/04/16 10:51:04;;;;;;;0.70;0.70;;;12.20;99.90;;;;;;5006460;28;20566;-82
2022/04/16 10:53:34;;;;;;;1.00;0.60;;;12.30;99.50;;;;;;5006981;28;20273;-81
2022/04/16 10:56:13;;;;;;;1.58;0.63;;;12.30;98.00;;;;;;5006064;28;20257;-83
2022/04/16 10:58:47;;;;;;;1.48;0.70;;;12.40;99.90;;;;;;5005069;28;20723;-82
2022/04/16 11:01:23;;;;;;;2.15;0.90;;;12.50;99.70;;;;;;5005353;28;20210;-83
2022/04/16 11:03:49;;;;;;;1.85;0.90;;;12.70;99.90;;;;;;5005626;28;20349;-82
2022/04/16 11:06:18;;;;;;;2.05;1.02;;;12.50;98.90;;;;;;5025290;28;20222;-82
2022/04/16 11:08:48;;;;;;;1.75;0.93;;;12.30;99.90;;;;;;5007433;28;20211;-81
2022/04/16 11:11:14;;;;;;;0.98;0.70;;;12.50;99.90;;;;;;5024933;28;20202;-81
2022/04/16 11:13:42;;;;;;;2.42;0.88;;;12.50;99.60;;;;;;5007329;28;20191;-83
2022/04/16 11:16:08;;;;;;;1.70;0.80;;;12.70;99.90;;;;;;5022713;28;20191;-81
2022/04/16 11:18:37;;;;;;;1.35;0.68;;;12.70;99.90;;;;;;5007383;28;20261;-81
2022/04/16 11:21:07;;;;;;;1.67;0.80;;;13.00;99.20;;;;;;5007116;28;20203;-81
2022/04/16 11:23:53;;;;;;;1.55;0.70;;;13.20;98.60;;;;;;5025573;28;20215;-82
2022/04/16 11:34:42;;;;;;;0.80;0.70;;;12.60;98.10;;;;;;5027766;28;20274;-80
2022/04/16 11:37:08;;;;;;;1.77;0.88;;;12.30;98.50;;;;;;5010652;28;20321;-85
2022/04/16 11:39:35;;;;;;;1.70;0.80;;;12.50;99.90;;;;;;5028215;28;20514;-84
2022/04/16 11:42:09;;;;;;;1.45;0.70;;;12.80;99.40;;;;;;5026333;28;20183;-84
2022/04/16 11:44:50;;;;;;;1.70;0.60;;;12.80;95.50;;;;;;5027492;28;20174;-84
2022/04/16 11:47:20;;;;;;;1.52;0.60;;;12.50;95.00;;;;;;5010345;28;20179;-83
2022/04/16 11:50:00;;;;;;;1.13;0.47;;;12.70;95.70;;;;;;5010357;28;20199;-84
2022/04/16 11:52:30;;;;;;;0.95;0.60;;;13.00;92.70;;;;;;5011834;28;20175;-85
2022/04/16 11:55:05;;;;;;;1.17;0.52;;;13.10;91.30;;;;;;5011779;28;20201;-85
2022/04/16 11:57:31;;;;;;;0.57;0.40;;;13.10;92.30;;;;;;5028307;28;20671;-85
2022/04/16 12:00:08;;;;;;;1.60;0.60;;;13.30;92.70;;;;;;5009638;28;20203;-86
2022/04/16 12:02:36;;;;;;;0.65;0.65;;;13.20;91.20;;;;;;5026511;28;20649;-85
2022/04/16 12:05:10;;;;;;;0.95;0.60;;;13.40;90.20;;;;;;5026435;28;21321;-83
2022/04/16 12:07:39;;;;;;;0.80;0.50;;;13.50;90.60;;;;;;5010420;28;20206;-84
2022/04/16 12:10:05;;;;;;;0.45;0.45;;;13.60;90.90;;;;;;5008754;28;20214;-83
2022/04/16 12:12:50;;;;;;;1.67;0.80;;;13.80;90.50;;;;;;5010849;28;20671;-83
2022/04/16 12:15:26;;;;;;;1.77;0.70;;;13.60;84.50;;;;;;5028833;28;20207;-86
2022/04/16 12:17:54;;;;;;;1.73;0.50;;;13.30;90.80;;;;;;5008299;28;20190;-80
2022/04/16 12:20:21;;;;;;;0.40;0.40;;;13.40;85.90;;;;;;5026953;28;20206;-81
2022/04/16 12:22:52;;;;;;;0.50;0.50;;;12.90;85.40;;;;;;5008328;28;20839;-80
2022/04/16 12:25:24;;;;;;;1.20;0.63;;;13.00;91.40;;;;;;5008265;28;20290;-83
2022/04/16 12:27:51;;;;;;;0.77;0.55;;;13.50;90.10;;;;;;5026108;28;20556;-83
2022/04/16 12:30:24;;;;;;;0.88;0.50;;;13.70;87.30;;;;;;5025827;28;20221;-82
2022/04/16 12:33:02;;;;;;;1.23;0.50;;;13.80;85.50;;;;;;5008211;28;20190;-84
2022/04/16 12:35:30;;;;;;;0.85;0.50;;;13.40;80.90;;;;;;5025152;28;20262;-84
2022/04/16 12:37:57;;;;;;;0.40;0.40;;;13.10;82.60;;;;;;5025429;28;20202;-84
2022/04/16 12:40:24;;;;;;;0.60;0.45;;;12.70;80.60;;;;;;5024913;28;20229;-81
2022/04/16 12:42:50;;;;;;;0.60;0.47;;;12.80;84.60;;;;;;5023578;28;20190;-84
2022/04/16 12:45:16;;;;;;;0.38;0.38;;;12.70;81.70;;;;;;5007216;28;20316;-84
2022/04/16 12:47:42;;;;;;;0.88;0.50;;;12.60;81.80;;;;;;5007347;28;20753;-82
2022/04/16 12:50:09;;;;;;;2.67;0.45;;;12.90;83.70;;;;;;5008486;28;20218;-84
2022/04/16 12:52:35;;;;;;;0.40;0.40;;;13.40;84.20;;;;;;5003909;28;20232;-82
2022/04/16 12:55:01;;;;;;;2.28;0.57;;;13.60;78.90;;;;;;5008848;28;20190;-87
2022/04/16 12:57:26;;;;;;;0.55;0.47;;;13.60;79.60;;;;;;5009111;28;20548;-85
2022/04/16 12:59:52;;;;;;;1.85;0.50;;;13.70;79.60;;;;;;5007694;28;20207;-83
2022/04/16 13:02:18;;;;;;;0.70;0.50;;;14.00;82.50;;;;;;5007923;28;20662;-82
2022/04/16 13:04:44;;;;;;;0.60;0.40;;;13.70;75.20;;;;;;5025101;28;20676;-82
2022/04/16 13:07:10;;;;;;;0.40;0.32;;;13.20;77.60;;;;;;5008429;28;20182;-82
2022/04/16 13:09:35;;;;;;;1.13;0.60;;;12.90;78.70;;;;;;5024997;28;20754;-85
2022/04/16 13:12:02;;;;;;;0.57;0.50;;;13.20;79.40;;;;;;5007471;28;20624;-83
2022/04/16 13:14:28;;;;;;;0.40;0.40;;;13.10;79.10;;;;;;5024804;28;20175;-82
2022/04/16 13:16:55;;;;;;;0.63;0.60;;;13.00;78.40;;;;;;5007398;28;20183;-81
2022/04/16 13:19:21;;;;;;;0.57;0.40;;;12.80;78.50;;;;;;5006830;28;20218;-83
2022/04/16 13:21:47;;;;;;;0.50;0.40;;;12.90;82.00;;;;;;5007886;28;20191;-83